Time;durP1;ratioP1;P1;durP2;ratioP2;P2;SDS_P1;SDS_P2;PMS_P1;PMS_P2;Temp;Humidity;BMP_temperature;BMP_pressure;BME280_temperature;BME280_humidity;BME280_pressure;Samples;Min_cycle;Max_cycle;Signal;HPM_P1;HPM_P2
2024/03/15 00:01:04;;;;;;;0.70;0.70;;;;;;;;;;2089306;28;20036;-77
2024/03/15 00:02:24;;;;;;;1.55;0.55;;;;;;;;;;2088808;28;20029;-77
2024/03/15 00:03:42;;;;;;;0.73;0.73;;;;;;;;;;2088778;28;20025;-76
2024/03/15 00:05:02;;;;;;;0.60;0.60;;;;;;;;;;2088872;28;20443;-76
2024/03/15 00:06:20;;;;;;;0.68;0.68;;;;;;;;;;2089521;28;20021;-76
2024/03/15 00:07:39;;;;;;;0.90;0.70;;;;;;;;;;2088920;28;20033;-75
2024/03/15 00:08:58;;;;;;;0.70;0.70;;;;;;;;;;2088716;28;20037;-79
2024/03/15 00:10:18;;;;;;;0.52;0.52;;;;;;;;;;2088522;28;20025;-76
2024/03/15 00:11:37;;;;;;;0.55;0.55;;;;;;;;;;2088420;28;20052;-78
2024/03/15 00:12:56;;;;;;;0.73;0.73;;;;;;;;;;2087654;28;20037;-76
2024/03/15 00:14:15;;;;;;;0.80;0.60;;;;;;;;;;2087983;28;20553;-77
2024/03/15 00:15:34;;;;;;;0.50;0.50;;;;;;;;;;2088961;28;20029;-76
2024/03/15 00:16:53;;;;;;;0.50;0.50;;;;;;;;;;2088976;28;20385;-77
2024/03/15 00:18:12;;;;;;;0.68;0.68;;;;;;;;;;2087091;28;20033;-76
2024/03/15 00:19:31;;;;;;;1.05;0.52;;;;;;;;;;2087687;28;20021;-76
2024/03/15 00:20:50;;;;;;;0.57;0.57;;;;;;;;;;2088233;28;20029;-76
2024/03/15 00:22:09;;;;;;;1.35;0.70;;;;;;;;;;2089515;28;20061;-76
2024/03/15 00:23:28;;;;;;;0.63;0.63;;;;;;;;;;2080416;28;20029;-77
2024/03/15 00:24:47;;;;;;;0.55;0.55;;;;;;;;;;2084974;28;20112;-77
2024/03/15 00:26:06;;;;;;;0.60;0.60;;;;;;;;;;2087724;28;20056;-77
2024/03/15 00:27:25;;;;;;;0.47;0.47;;;;;;;;;;2087834;28;20033;-77
2024/03/15 00:28:45;;;;;;;0.40;0.40;;;;;;;;;;2088638;28;20021;-77
2024/03/15 00:30:05;;;;;;;0.70;0.50;;;;;;;;;;2087481;28;20689;-77
2024/03/15 00:31:24;;;;;;;0.47;0.47;;;;;;;;;;2088529;28;20037;-77
2024/03/15 00:32:43;;;;;;;1.23;0.50;;;;;;;;;;2089029;28;20443;-77
2024/03/15 00:34:03;;;;;;;0.95;0.40;;;;;;;;;;2087874;28;20111;-77
2024/03/15 00:35:22;;;;;;;0.73;0.40;;;;;;;;;;2087999;28;20025;-75
2024/03/15 00:36:42;;;;;;;0.50;0.50;;;;;;;;;;2087962;28;20025;-74
2024/03/15 00:38:01;;;;;;;0.65;0.40;;;;;;;;;;2087294;28;20486;-74
2024/03/15 00:39:20;;;;;;;0.50;0.50;;;;;;;;;;2088040;28;20032;-74
2024/03/15 00:40:41;;;;;;;0.40;0.40;;;;;;;;;;2087134;28;20025;-75
2024/03/15 00:42:00;;;;;;;0.60;0.30;;;;;;;;;;2088444;28;20025;-76
2024/03/15 00:43:20;;;;;;;1.45;0.50;;;;;;;;;;2088680;28;20033;-75
2024/03/15 00:44:41;;;;;;;0.57;0.40;;;;;;;;;;2088195;28;20029;-76
2024/03/15 00:46:00;;;;;;;0.75;0.32;;;;;;;;;;2080230;28;20034;-76
2024/03/15 00:47:19;;;;;;;0.43;0.43;;;;;;;;;;2085732;28;21196;-76
2024/03/15 00:48:40;;;;;;;0.40;0.40;;;;;;;;;;2088225;28;20498;-76
2024/03/15 00:49:59;;;;;;;0.20;0.20;;;;;;;;;;2094106;28;20482;-75
2024/03/15 00:51:18;;;;;;;0.30;0.30;;;;;;;;;;2092679;28;20033;-75
2024/03/15 00:52:37;;;;;;;0.30;0.30;;;;;;;;;;2088033;28;20049;-75
2024/03/15 00:53:56;;;;;;;0.60;0.40;;;;;;;;;;2095335;28;20086;-76
2024/03/15 00:55:15;;;;;;;3.13;0.50;;;;;;;;;;2096980;28;20060;-76
2024/03/15 00:56:34;;;;;;;0.40;0.40;;;;;;;;;;2096909;28;20031;-76
2024/03/15 00:57:53;;;;;;;1.60;0.47;;;;;;;;;;2095843;28;20024;-76
2024/03/15 00:59:12;;;;;;;1.65;0.30;;;;;;;;;;2095962;28;20029;-75
2024/03/15 01:00:33;;;;;;;0.68;0.50;;;;;;;;;;2094047;28;20033;-74
2024/03/15 01:01:52;;;;;;;0.40;0.40;;;;;;;;;;2096762;28;20040;-76
2024/03/15 01:03:11;;;;;;;0.50;0.50;;;;;;;;;;2095400;28;20025;-76
2024/03/15 01:04:31;;;;;;;0.47;0.47;;;;;;;;;;2097072;28;20493;-74
2024/03/15 01:05:50;;;;;;;1.77;0.70;;;;;;;;;;2097835;28;20029;-75
2024/03/15 01:07:09;;;;;;;0.88;0.47;;;;;;;;;;2095056;28;20033;-74
2024/03/15 01:08:28;;;;;;;0.95;0.52;;;;;;;;;;2096057;28;20505;-75
2024/03/15 01:09:47;;;;;;;1.42;0.70;;;;;;;;;;2096208;28;20036;-75
2024/03/15 01:11:07;;;;;;;0.63;0.60;;;;;;;;;;2096787;28;20029;-76
2024/03/15 01:12:26;;;;;;;0.60;0.60;;;;;;;;;;2096372;28;20421;-76
2024/03/15 01:13:45;;;;;;;1.75;0.45;;;;;;;;;;2097553;28;20028;-76
2024/03/15 01:15:04;;;;;;;2.80;0.60;;;;;;;;;;2096315;28;20032;-76
2024/03/15 01:16:25;;;;;;;0.68;0.68;;;;;;;;;;2095955;28;20182;-76
2024/03/15 01:17:45;;;;;;;1.83;0.90;;;;;;;;;;2095550;28;20037;-76
2024/03/15 01:19:04;;;;;;;1.65;0.50;;;;;;;;;;2097258;28;20504;-76
2024/03/15 01:20:23;;;;;;;1.08;0.60;;;;;;;;;;2097246;28;20107;-76
2024/03/15 01:21:42;;;;;;;1.30;0.88;;;;;;;;;;2096122;28;20107;-75
2024/03/15 01:23:02;;;;;;;1.00;0.70;;;;;;;;;;2096046;28;20438;-76
2024/03/15 01:24:21;;;;;;;0.70;0.70;;;;;;;;;;2095050;28;20021;-75
2024/03/15 01:25:40;;;;;;;0.70;0.70;;;;;;;;;;2096190;28;20029;-75
2024/03/15 01:26:59;;;;;;;1.00;0.90;;;;;;;;;;2096372;28;20448;-75
2024/03/15 01:28:17;;;;;;;0.70;0.70;;;;;;;;;;2093162;28;20040;-75
2024/03/15 01:29:37;;;;;;;1.52;0.80;;;;;;;;;;2095690;28;20567;-76
2024/03/15 01:30:59;;;;;;;1.17;0.82;;;;;;;;;;2095746;28;20425;-75
2024/03/15 01:32:18;;;;;;;1.13;0.70;;;;;;;;;;2095808;28;20461;-75
2024/03/15 01:33:37;;;;;;;0.68;0.68;;;;;;;;;;2096606;28;20032;-74
2024/03/15 01:34:56;;;;;;;0.95;0.88;;;;;;;;;;2095781;28;20501;-74
2024/03/15 01:36:15;;;;;;;0.73;0.70;;;;;;;;;;2096597;28;20029;-74
2024/03/15 01:37:36;;;;;;;5.07;1.10;;;;;;;;;;2096744;28;20043;-73
2024/03/15 01:38:55;;;;;;;0.93;0.80;;;;;;;;;;2097427;28;20132;-75
2024/03/15 01:40:15;;;;;;;0.82;0.82;;;;;;;;;;2095434;28;20036;-75
2024/03/15 01:41:34;;;;;;;1.30;1.20;;;;;;;;;;2093444;28;20032;-76
2024/03/15 01:42:55;;;;;;;2.75;1.00;;;;;;;;;;2095829;28;20111;-75
2024/03/15 01:44:14;;;;;;;1.23;0.95;;;;;;;;;;2096057;28;20618;-76
2024/03/15 01:45:34;;;;;;;2.35;1.00;;;;;;;;;;2095668;28;20103;-77
2024/03/15 01:46:53;;;;;;;1.08;1.02;;;;;;;;;;2096009;28;20072;-75
2024/03/15 01:48:13;;;;;;;3.97;1.33;;;;;;;;;;2097562;28;20040;-75
2024/03/15 01:49:33;;;;;;;1.52;1.00;;;;;;;;;;2095969;28;20029;-75
2024/03/15 01:50:52;;;;;;;3.03;1.40;;;;;;;;;;2097242;28;20112;-75
2024/03/15 01:52:10;;;;;;;1.88;1.00;;;;;;;;;;2095335;28;20033;-75
2024/03/15 01:53:30;;;;;;;1.10;1.10;;;;;;;;;;2092932;28;20044;-75
2024/03/15 01:54:49;;;;;;;4.35;1.55;;;;;;;;;;2096303;28;20827;-74
2024/03/15 01:56:08;;;;;;;2.50;1.60;;;;;;;;;;2095417;28;20045;-74
2024/03/15 01:57:27;;;;;;;1.40;1.30;;;;;;;;;;2096904;28;20020;-75
2024/03/15 01:58:46;;;;;;;2.00;1.42;;;;;;;;;;2095790;28;20025;-74
2024/03/15 02:00:10;;;;;;;2.70;1.20;;;;;;;;;;2095749;28;20493;-74
2024/03/15 02:01:29;;;;;;;2.13;1.70;;;;;;;;;;2095198;28;20021;-74
2024/03/15 02:02:48;;;;;;;1.60;1.38;;;;;;;;;;2095496;28;20029;-75
2024/03/15 02:04:07;;;;;;;3.45;1.80;;;;;;;;;;2096693;28;20513;-76
2024/03/15 02:05:27;;;;;;;1.65;1.38;;;;;;;;;;2094124;28;20024;-77
2024/03/15 02:06:47;;;;;;;2.15;1.92;;;;;;;;;;2095352;28;20576;-75
2024/03/15 02:08:07;;;;;;;2.22;2.03;;;;;;;;;;2094134;28;20036;-75
2024/03/15 02:09:28;;;;;;;1.92;1.83;;;;;;;;;;2094024;28;20017;-77
2024/03/15 02:10:47;;;;;;;6.05;2.00;;;;;;;;;;2096378;28;20033;-76
2024/03/15 02:12:06;;;;;;;2.92;2.20;;;;;;;;;;2094713;28;20037;-77
2024/03/15 02:13:25;;;;;;;3.00;2.10;;;;;;;;;;2095250;28;20412;-77
2024/03/15 02:14:44;;;;;;;3.30;2.70;;;;;;;;;;2091430;28;20037;-75
2024/03/15 02:16:03;;;;;;;2.20;2.10;;;;;;;;;;2092034;28;20033;-76
2024/03/15 02:17:23;;;;;;;2.97;2.58;;;;;;;;;;2096491;28;20024;-76
2024/03/15 02:18:43;;;;;;;2.88;2.50;;;;;;;;;;2095985;28;20104;-75
2024/03/15 02:20:06;;;;;;;2.78;2.50;;;;;;;;;;2095557;28;20037;-75
2024/03/15 02:21:26;;;;;;;3.65;2.70;;;;;;;;;;2096296;28;20028;-75
2024/03/15 02:22:44;;;;;;;3.28;3.05;;;;;;;;;;2096987;28;20029;-75
2024/03/15 02:24:05;;;;;;;4.13;3.30;;;;;;;;;;2096521;28;20028;-75
2024/03/15 02:25:24;;;;;;;3.15;2.88;;;;;;;;;;2094670;28;20696;-75
2024/03/15 02:26:44;;;;;;;4.20;3.50;;;;;;;;;;2095854;28;20268;-75
2024/03/15 02:28:06;;;;;;;6.10;3.00;;;;;;;;;;2096659;28;20398;-76
2024/03/15 02:29:25;;;;;;;11.23;4.00;;;;;;;;;;2094091;28;20417;-75
2024/03/15 02:30:45;;;;;;;3.20;3.00;;;;;;;;;;2101692;28;20246;-75
2024/03/15 02:32:04;;;;;;;4.00;3.47;;;;;;;;;;2094227;28;20036;-75
2024/03/15 02:33:23;;;;;;;3.50;2.78;;;;;;;;;;2092809;28;20029;-75
2024/03/15 02:34:42;;;;;;;3.20;2.88;;;;;;;;;;2095291;28;20370;-75
2024/03/15 02:36:01;;;;;;;3.53;3.22;;;;;;;;;;2095487;28;20032;-75
2024/03/15 02:37:20;;;;;;;3.22;3.00;;;;;;;;;;2094892;28;20104;-76
2024/03/15 02:38:38;;;;;;;7.70;3.70;;;;;;;;;;2094524;28;20135;-75
2024/03/15 02:39:57;;;;;;;4.43;3.70;;;;;;;;;;2095375;28;20020;-76
2024/03/15 02:41:16;;;;;;;3.83;3.28;;;;;;;;;;2096681;28;20473;-76
2024/03/15 02:42:38;;;;;;;3.40;3.10;;;;;;;;;;2095628;28;20050;-75
2024/03/15 02:43:57;;;;;;;3.70;3.40;;;;;;;;;;2096246;28;20103;-75
2024/03/15 02:45:16;;;;;;;3.22;3.00;;;;;;;;;;2095798;28;20095;-76
2024/03/15 02:46:35;;;;;;;3.55;3.25;;;;;;;;;;2095003;28;20433;-76
2024/03/15 02:47:54;;;;;;;3.53;3.33;;;;;;;;;;2096255;28;20060;-77
2024/03/15 02:49:13;;;;;;;3.95;2.75;;;;;;;;;;2096330;28;20029;-74
2024/03/15 02:50:32;;;;;;;3.20;2.90;;;;;;;;;;2096393;28;20021;-75
2024/03/15 02:51:54;;;;;;;3.53;3.30;;;;;;;;;;2096530;28;20061;-75
2024/03/15 02:53:13;;;;;;;3.55;3.30;;;;;;;;;;2096079;28;20028;-75
2024/03/15 02:54:33;;;;;;;3.42;3.13;;;;;;;;;;2095850;28;20024;-76
2024/03/15 02:55:52;;;;;;;4.28;3.08;;;;;;;;;;2095332;28;20032;-75
2024/03/15 02:57:11;;;;;;;3.70;2.90;;;;;;;;;;2094629;28;20028;-76
2024/03/15 02:58:30;;;;;;;3.20;2.92;;;;;;;;;;2095793;28;20482;-74
2024/03/15 02:59:49;;;;;;;3.30;3.03;;;;;;;;;;2094609;28;20029;-75
2024/03/15 03:01:08;;;;;;;3.50;3.20;;;;;;;;;;2095851;28;20029;-74
2024/03/15 03:02:28;;;;;;;3.45;3.15;;;;;;;;;;2097799;28;20036;-75
2024/03/15 03:03:47;;;;;;;3.90;3.42;;;;;;;;;;2097568;28;20024;-75
2024/03/15 03:05:07;;;;;;;2.92;2.72;;;;;;;;;;2093528;28;20024;-75
2024/03/15 03:06:26;;;;;;;3.55;3.25;;;;;;;;;;2098018;28;20048;-75
2024/03/15 03:07:45;;;;;;;7.90;2.80;;;;;;;;;;2097672;28;20020;-75
2024/03/15 03:09:06;;;;;;;3.42;3.13;;;;;;;;;;2098304;28;20032;-75
2024/03/15 03:10:27;;;;;;;3.85;3.22;;;;;;;;;;2097176;28;20032;-75
2024/03/15 03:11:48;;;;;;;3.13;2.92;;;;;;;;;;2097790;28;20024;-76
2024/03/15 03:13:07;;;;;;;3.20;2.90;;;;;;;;;;2097782;28;20050;-75
2024/03/15 03:14:26;;;;;;;3.50;3.30;;;;;;;;;;2097667;28;20642;-75
2024/03/15 03:15:45;;;;;;;4.53;3.60;;;;;;;;;;2095584;28;20029;-75
2024/03/15 03:17:05;;;;;;;4.68;3.55;;;;;;;;;;2097790;28;20024;-75
2024/03/15 03:18:24;;;;;;;3.97;3.67;;;;;;;;;;2096478;28;20017;-75
2024/03/15 03:19:43;;;;;;;3.50;2.92;;;;;;;;;;2098027;28;20056;-74
2024/03/15 03:21:02;;;;;;;3.60;3.30;;;;;;;;;;2092239;28;20433;-75
2024/03/15 03:22:21;;;;;;;3.30;3.00;;;;;;;;;;2096203;28;20494;-76
2024/03/15 03:23:39;;;;;;;3.10;2.90;;;;;;;;;;2095128;28;20121;-75
2024/03/15 03:24:58;;;;;;;3.47;3.17;;;;;;;;;;2097438;28;20434;-74
2024/03/15 03:26:19;;;;;;;3.90;3.50;;;;;;;;;;2098562;28;20032;-75
2024/03/15 03:27:37;;;;;;;3.30;3.10;;;;;;;;;;2096529;28;20508;-75
2024/03/15 03:28:56;;;;;;;4.22;3.10;;;;;;;;;;2096544;28;20040;-75
2024/03/15 03:30:17;;;;;;;3.88;3.55;;;;;;;;;;2096878;28;20024;-74
2024/03/15 03:31:36;;;;;;;4.00;2.75;;;;;;;;;;2095764;28;20481;-76
2024/03/15 03:32:55;;;;;;;4.43;3.25;;;;;;;;;;2094905;28;20059;-75
2024/03/15 03:34:14;;;;;;;4.38;3.40;;;;;;;;;;2096827;28;20513;-76
2024/03/15 03:35:33;;;;;;;3.72;3.08;;;;;;;;;;2098051;28;20029;-75
2024/03/15 03:36:54;;;;;;;3.40;2.75;;;;;;;;;;2095987;28;20489;-76
2024/03/15 03:38:13;;;;;;;2.83;2.63;;;;;;;;;;2097321;28;20032;-76
2024/03/15 03:39:32;;;;;;;2.78;2.58;;;;;;;;;;2096992;28;20025;-76
2024/03/15 03:40:51;;;;;;;2.90;2.70;;;;;;;;;;2094799;28;20029;-76
2024/03/15 03:42:11;;;;;;;3.05;2.85;;;;;;;;;;2095888;28;20029;-75
2024/03/15 03:43:30;;;;;;;3.10;2.90;;;;;;;;;;2095081;28;20482;-75
2024/03/15 03:44:49;;;;;;;2.88;2.67;;;;;;;;;;2096550;28;20036;-76
2024/03/15 03:46:08;;;;;;;3.00;2.67;;;;;;;;;;2098550;28;20040;-75
2024/03/15 03:47:28;;;;;;;7.30;3.10;;;;;;;;;;2095558;28;20025;-76
2024/03/15 03:48:48;;;;;;;2.80;2.60;;;;;;;;;;2095209;28;20024;-75
2024/03/15 03:50:07;;;;;;;3.03;2.72;;;;;;;;;;2096444;28;20393;-76
2024/03/15 03:51:26;;;;;;;3.15;2.85;;;;;;;;;;2095628;28;20036;-76
2024/03/15 03:52:48;;;;;;;2.95;2.70;;;;;;;;;;2096777;28;20033;-76
2024/03/15 03:54:06;;;;;;;3.58;2.78;;;;;;;;;;2104991;28;20036;-75
2024/03/15 03:55:26;;;;;;;2.83;2.63;;;;;;;;;;2106420;28;20469;-75
2024/03/15 03:56:45;;;;;;;2.90;2.70;;;;;;;;;;2106363;28;20032;-75
2024/03/15 03:58:04;;;;;;;2.42;2.22;;;;;;;;;;2095815;28;20540;-75
2024/03/15 03:59:23;;;;;;;3.00;2.75;;;;;;;;;;2101962;28;20484;-75
2024/03/15 04:00:42;;;;;;;2.28;2.17;;;;;;;;;;2105051;28;20028;-76
2024/03/15 04:02:00;;;;;;;2.92;2.72;;;;;;;;;;2105991;28;20123;-74
2024/03/15 04:03:19;;;;;;;2.80;2.30;;;;;;;;;;2105824;28;20020;-75
2024/03/15 04:04:38;;;;;;;2.30;2.17;;;;;;;;;;2104679;28;20056;-74
2024/03/15 04:05:58;;;;;;;2.55;2.33;;;;;;;;;;2105984;28;20044;-75
2024/03/15 04:07:19;;;;;;;2.40;2.20;;;;;;;;;;2105986;28;20036;-75
2024/03/15 04:08:38;;;;;;;2.35;2.25;;;;;;;;;;2096490;28;20458;-76
2024/03/15 04:09:57;;;;;;;2.78;2.20;;;;;;;;;;2100598;28;20397;-75
2024/03/15 04:11:16;;;;;;;2.55;2.35;;;;;;;;;;2105247;28;20501;-76
2024/03/15 04:12:35;;;;;;;2.42;2.22;;;;;;;;;;2104771;28;20036;-75
2024/03/15 04:13:54;;;;;;;4.05;2.53;;;;;;;;;;2105634;28;20591;-75
2024/03/15 04:15:14;;;;;;;2.40;2.30;;;;;;;;;;2096233;28;20036;-75
2024/03/15 04:16:33;;;;;;;2.50;2.30;;;;;;;;;;2101825;28;20051;-75
2024/03/15 04:17:52;;;;;;;2.92;2.72;;;;;;;;;;2105732;28;20028;-75
2024/03/15 04:19:12;;;;;;;3.42;2.35;;;;;;;;;;2103525;28;20412;-74
2024/03/15 04:20:33;;;;;;;2.40;2.30;;;;;;;;;;2104873;28;20520;-74
2024/03/15 04:21:52;;;;;;;2.70;2.50;;;;;;;;;;2096943;28;20104;-75
2024/03/15 04:23:11;;;;;;;3.30;2.60;;;;;;;;;;2093112;28;20028;-75
2024/03/15 04:24:34;;;;;;;2.60;2.42;;;;;;;;;;2101096;28;20466;-75
2024/03/15 04:25:54;;;;;;;2.45;2.25;;;;;;;;;;2103232;28;20044;-75
2024/03/15 04:27:15;;;;;;;3.90;2.53;;;;;;;;;;2104888;28;20028;-75
2024/03/15 04:28:34;;;;;;;2.60;2.40;;;;;;;;;;2105439;28;20333;-75
2024/03/15 04:29:53;;;;;;;2.88;2.67;;;;;;;;;;2105334;28;20036;-76
2024/03/15 04:31:12;;;;;;;2.67;2.47;;;;;;;;;;2096820;28;20025;-76
2024/03/15 04:32:34;;;;;;;2.70;2.50;;;;;;;;;;2103342;28;20098;-76
2024/03/15 04:33:54;;;;;;;2.70;2.50;;;;;;;;;;2105505;28;20032;-76
2024/03/15 04:35:17;;;;;;;3.58;2.30;;;;;;;;;;2105682;28;20080;-76
2024/03/15 04:36:36;;;;;;;3.33;2.58;;;;;;;;;;2105269;28;20047;-76
2024/03/15 04:37:55;;;;;;;2.50;2.30;;;;;;;;;;2106099;28;20036;-76
2024/03/15 04:39:15;;;;;;;3.03;2.50;;;;;;;;;;2104723;28;20024;-76
2024/03/15 04:40:34;;;;;;;2.78;2.58;;;;;;;;;;2106184;28;20056;-76
2024/03/15 04:41:54;;;;;;;2.72;2.50;;;;;;;;;;2103935;28;20024;-76
2024/03/15 04:43:13;;;;;;;2.92;2.70;;;;;;;;;;2106260;28;20434;-76
2024/03/15 04:44:38;;;;;;;3.97;3.00;;;;;;;;;;2105709;28;20052;-76
2024/03/15 04:45:57;;;;;;;2.90;2.50;;;;;;;;;;2105875;28;20485;-76
2024/03/15 04:47:16;;;;;;;2.83;2.63;;;;;;;;;;2105811;28;20135;-78
2024/03/15 04:48:36;;;;;;;2.90;2.70;;;;;;;;;;2104805;28;20028;-77
2024/03/15 04:49:56;;;;;;;2.85;2.65;;;;;;;;;;2096511;28;20154;-77
2024/03/15 04:51:15;;;;;;;2.67;2.47;;;;;;;;;;2100806;28;20040;-77
2024/03/15 04:52:34;;;;;;;3.10;2.90;;;;;;;;;;2105245;28;20505;-78
2024/03/15 04:53:54;;;;;;;3.65;2.90;;;;;;;;;;2106104;28;20159;-76
2024/03/15 04:55:13;;;;;;;6.50;2.90;;;;;;;;;;2105438;28;20028;-77
2024/03/15 04:56:33;;;;;;;2.60;2.40;;;;;;;;;;2104950;28;20541;-77
2024/03/15 04:57:52;;;;;;;4.63;3.20;;;;;;;;;;2104652;28;20096;-77
2024/03/15 04:59:11;;;;;;;4.32;3.00;;;;;;;;;;2095624;28;20424;-79
2024/03/15 05:00:31;;;;;;;4.32;3.03;;;;;;;;;;2099677;28;20107;-76
2024/03/15 05:01:50;;;;;;;3.95;2.90;;;;;;;;;;2106298;28;20032;-77
2024/03/15 05:03:09;;;;;;;3.75;2.67;;;;;;;;;;2104828;28;20532;-77
2024/03/15 05:04:28;;;;;;;3.38;3.10;;;;;;;;;;2103972;28;20036;-78
2024/03/15 05:05:47;;;;;;;3.03;2.72;;;;;;;;;;2104885;28;20473;-78
2024/03/15 05:07:06;;;;;;;6.80;3.35;;;;;;;;;;2105661;28;20036;-77
2024/03/15 05:08:27;;;;;;;3.38;3.13;;;;;;;;;;2096590;28;20036;-77
2024/03/15 05:09:47;;;;;;;4.45;3.50;;;;;;;;;;2101693;28;20028;-76
2024/03/15 05:11:05;;;;;;;3.60;3.30;;;;;;;;;;2106383;28;20585;-77
2024/03/15 05:12:24;;;;;;;3.92;3.55;;;;;;;;;;2105803;28;20451;-78
2024/03/15 05:13:43;;;;;;;3.53;3.22;;;;;;;;;;2107126;28;20024;-78
2024/03/15 05:15:03;;;;;;;3.90;3.55;;;;;;;;;;2103930;28;20037;-77
2024/03/15 05:16:23;;;;;;;4.28;3.63;;;;;;;;;;2104829;28;20020;-78
2024/03/15 05:17:42;;;;;;;3.53;3.17;;;;;;;;;;2104624;28;20401;-77
2024/03/15 05:19:01;;;;;;;4.13;3.67;;;;;;;;;;2105191;28;20054;-77
2024/03/15 05:20:20;;;;;;;3.75;3.45;;;;;;;;;;2105828;28;20455;-78
2024/03/15 05:21:39;;;;;;;5.03;3.72;;;;;;;;;;2106488;28;20032;-78
2024/03/15 05:22:57;;;;;;;6.80;3.95;;;;;;;;;;2105560;28;20041;-78
2024/03/15 05:24:17;;;;;;;8.68;4.38;;;;;;;;;;2105669;28;20024;-77
2024/03/15 05:25:36;;;;;;;4.00;3.70;;;;;;;;;;2102140;28;20032;-78
2024/03/15 05:26:55;;;;;;;4.50;3.75;;;;;;;;;;2105481;28;20516;-77
2024/03/15 05:28:16;;;;;;;5.07;3.47;;;;;;;;;;2104266;28;20035;-78
2024/03/15 05:29:36;;;;;;;5.47;4.25;;;;;;;;;;2106518;28;20028;-77
2024/03/15 05:30:56;;;;;;;3.80;3.50;;;;;;;;;;2094659;28;20028;-77
2024/03/15 05:32:14;;;;;;;5.45;4.25;;;;;;;;;;2101163;28;20036;-76
2024/03/15 05:33:35;;;;;;;4.32;3.90;;;;;;;;;;2096709;28;20017;-77
2024/03/15 05:34:55;;;;;;;4.80;3.75;;;;;;;;;;2093567;28;20143;-76
2024/03/15 05:36:15;;;;;;;4.50;4.10;;;;;;;;;;2099457;28;20091;-77
2024/03/15 05:37:34;;;;;;;4.63;4.10;;;;;;;;;;2106758;28;20496;-75
2024/03/15 05:38:56;;;;;;;8.20;4.55;;;;;;;;;;2102753;28;20032;-79
2024/03/15 05:40:15;;;;;;;5.72;4.70;;;;;;;;;;2104437;28;20447;-79
2024/03/15 05:41:34;;;;;;;5.05;4.57;;;;;;;;;;2104070;28;20032;-76
2024/03/15 05:42:53;;;;;;;5.82;4.70;;;;;;;;;;2105969;28;20435;-77
2024/03/15 05:44:12;;;;;;;5.80;5.18;;;;;;;;;;2095139;28;20523;-76
2024/03/15 05:45:31;;;;;;;5.75;5.13;;;;;;;;;;2093746;28;20037;-77
2024/03/15 05:46:50;;;;;;;6.40;4.65;;;;;;;;;;2100092;28;20032;-76
2024/03/15 05:48:10;;;;;;;6.85;5.47;;;;;;;;;;2105123;28;20017;-77
2024/03/15 05:49:28;;;;;;;7.78;5.03;;;;;;;;;;2104787;28;20556;-82
2024/03/15 05:50:47;;;;;;;5.65;4.70;;;;;;;;;;2105672;28;20035;-82
2024/03/15 05:52:10;;;;;;;5.78;5.22;;;;;;;;;;2105717;28;20029;-77
2024/03/15 05:53:29;;;;;;;10.90;5.38;;;;;;;;;;2104221;28;20053;-77
2024/03/15 05:54:49;;;;;;;5.63;4.78;;;;;;;;;;2106658;28;20032;-81
2024/03/15 05:56:08;;;;;;;6.90;5.30;;;;;;;;;;2105262;28;20028;-76
2024/03/15 05:57:28;;;;;;;7.18;5.57;;;;;;;;;;2104842;28;20376;-76
2024/03/15 05:58:47;;;;;;;6.75;4.85;;;;;;;;;;2100534;28;20488;-77
2024/03/15 06:00:14;;;;;;;5.57;4.88;;;;;;;;;;2103847;28;20028;-76
2024/03/15 06:01:33;;;;;;;6.60;4.63;;;;;;;;;;2104263;28;20028;-76
2024/03/15 06:02:52;;;;;;;4.88;4.57;;;;;;;;;;2104610;28;20080;-77
2024/03/15 06:04:11;;;;;;;5.07;4.72;;;;;;;;;;2104325;28;20512;-77
2024/03/15 06:05:30;;;;;;;5.57;4.88;;;;;;;;;;2101482;28;20497;-76
2024/03/15 06:06:49;;;;;;;8.77;4.93;;;;;;;;;;2093854;28;20037;-77
2024/03/15 06:08:11;;;;;;;4.95;4.53;;;;;;;;;;2100919;28;20546;-77
2024/03/15 06:09:30;;;;;;;5.10;4.63;;;;;;;;;;2103826;28;20423;-78
2024/03/15 06:10:49;;;;;;;4.88;4.50;;;;;;;;;;2102547;28;20036;-77
2024/03/15 06:12:08;;;;;;;5.88;4.68;;;;;;;;;;2104922;28;20111;-78
2024/03/15 06:13:27;;;;;;;4.53;4.10;;;;;;;;;;2106132;28;20499;-77
2024/03/15 06:14:47;;;;;;;5.82;4.63;;;;;;;;;;2103795;28;20032;-77
2024/03/15 06:16:10;;;;;;;4.22;3.92;;;;;;;;;;2094949;28;20060;-78
2024/03/15 06:17:33;;;;;;;4.55;3.92;;;;;;;;;;2101417;28;20342;-78
2024/03/15 06:18:52;;;;;;;5.00;4.13;;;;;;;;;;2095938;28;20033;-77
2024/03/15 06:20:12;;;;;;;6.85;4.47;;;;;;;;;;2099897;28;20123;-77
2024/03/15 06:21:31;;;;;;;4.00;3.70;;;;;;;;;;2103577;28;20012;-79
2024/03/15 06:22:50;;;;;;;5.85;3.72;;;;;;;;;;2104468;28;20040;-79
2024/03/15 06:24:10;;;;;;;4.20;3.90;;;;;;;;;;2103653;28;20400;-78
2024/03/15 06:25:30;;;;;;;4.65;4.25;;;;;;;;;;2104669;28;20051;-77
2024/03/15 06:26:48;;;;;;;4.65;3.80;;;;;;;;;;2103908;28;20028;-76
2024/03/15 06:28:09;;;;;;;6.00;3.80;;;;;;;;;;2094505;28;20029;-76
2024/03/15 06:29:33;;;;;;;6.43;4.43;;;;;;;;;;2100875;28;20056;-76
2024/03/15 06:30:53;;;;;;;5.50;3.53;;;;;;;;;;2104974;28;20028;-76
2024/03/15 06:32:15;;;;;;;5.30;4.25;;;;;;;;;;2104728;28;20024;-76
2024/03/15 06:33:35;;;;;;;7.28;4.10;;;;;;;;;;2103855;28;20102;-77
2024/03/15 06:34:55;;;;;;;3.78;3.40;;;;;;;;;;2103463;28;20040;-75
2024/03/15 06:36:18;;;;;;;3.72;3.42;;;;;;;;;;2095515;28;20417;-74
2024/03/15 06:37:39;;;;;;;5.50;4.95;;;;;;;;;;2102351;28;20020;-74
2024/03/15 06:39:09;;;;;;;4.00;3.55;;;;;;;;;;2104428;28;20498;-75
2024/03/15 06:40:41;;;;;;;4.13;3.78;;;;;;;;;;2104467;28;20036;-75
2024/03/15 06:42:09;;;;;;;4.82;4.07;;;;;;;;;;2104228;28;20535;-74
2024/03/15 06:45:23;;;;;;;5.68;3.88;;;;;;;;;;2105058;28;20091;-74
2024/03/15 06:48:22;;;;;;;4.53;4.13;;;;;;;;;;2106221;28;20393;-73
2024/03/15 06:49:47;;;;;;;6.78;3.80;;;;;;;;;;2104803;28;20028;-73
2024/03/15 06:52:44;;;;;;;4.35;4.05;;;;;;;;;;2102461;28;20086;-76
2024/03/15 06:54:03;;;;;;;3.90;3.60;;;;;;;;;;2103797;28;20431;-73
2024/03/15 06:55:22;;;;;;;4.95;4.10;;;;;;;;;;2102163;28;20036;-73
2024/03/15 06:56:42;;;;;;;4.45;3.97;;;;;;;;;;2097554;28;20032;-73
2024/03/15 06:58:02;;;;;;;4.20;3.85;;;;;;;;;;2102233;28;20052;-73
2024/03/15 06:59:21;;;;;;;4.75;3.88;;;;;;;;;;2103718;28;20020;-73
2024/03/15 07:00:40;;;;;;;7.20;3.63;;;;;;;;;;2106257;28;20016;-73
2024/03/15 07:02:00;;;;;;;6.32;3.90;;;;;;;;;;2104924;28;20042;-74
2024/03/15 07:03:18;;;;;;;4.75;4.10;;;;;;;;;;2105763;28;20024;-73
2024/03/15 07:04:37;;;;;;;6.07;4.22;;;;;;;;;;2097450;28;20021;-74
2024/03/15 07:05:58;;;;;;;6.20;4.10;;;;;;;;;;2102343;28;20040;-73
2024/03/15 07:07:17;;;;;;;9.23;4.80;;;;;;;;;;2105583;28;20028;-73
2024/03/15 07:08:37;;;;;;;4.47;4.07;;;;;;;;;;2106183;28;20110;-74
2024/03/15 07:09:56;;;;;;;5.47;4.35;;;;;;;;;;2104947;28;20481;-73
2024/03/15 07:11:16;;;;;;;9.85;4.93;;;;;;;;;;2106071;28;20497;-73
2024/03/15 07:12:38;;;;;;;6.38;4.60;;;;;;;;;;2105242;28;20055;-74
2024/03/15 07:13:58;;;;;;;5.65;4.18;;;;;;;;;;2105807;28;20028;-73
2024/03/15 07:15:18;;;;;;;6.32;4.63;;;;;;;;;;2103840;28;20021;-73
2024/03/15 07:16:37;;;;;;;6.18;5.15;;;;;;;;;;2105868;28;20016;-74
2024/03/15 07:17:56;;;;;;;9.38;5.63;;;;;;;;;;2105873;28;20032;-73
2024/03/15 07:19:18;;;;;;;7.22;5.03;;;;;;;;;;2106863;28;20024;-73
2024/03/15 07:20:37;;;;;;;9.93;4.78;;;;;;;;;;2105561;28;20025;-73
2024/03/15 07:21:57;;;;;;;8.55;5.38;;;;;;;;;;2105480;28;20020;-73
2024/03/15 07:23:16;;;;;;;9.65;5.03;;;;;;;;;;2105541;28;20528;-73
2024/03/15 07:24:35;;;;;;;4.82;4.40;;;;;;;;;;2104866;28;20127;-74
2024/03/15 07:25:55;;;;;;;5.20;4.68;;;;;;;;;;2097449;28;20511;-73
2024/03/15 07:27:14;;;;;;;9.68;5.25;;;;;;;;;;2102285;28;20485;-73
2024/03/15 07:28:35;;;;;;;8.43;5.63;;;;;;;;;;2105502;28;20036;-73
2024/03/15 07:29:54;;;;;;;14.57;5.25;;;;;;;;;;2105275;28;20036;-73
2024/03/15 07:31:13;;;;;;;12.90;5.68;;;;;;;;;;2105520;28;20028;-73
2024/03/15 07:32:35;;;;;;;9.98;5.60;;;;;;;;;;2105101;28;20099;-73
2024/03/15 07:33:54;;;;;;;5.50;4.60;;;;;;;;;;2105763;28;20066;-73
2024/03/15 07:35:15;;;;;;;6.90;4.70;;;;;;;;;;2106091;28;20020;-73
2024/03/15 07:36:33;;;;;;;5.82;5.03;;;;;;;;;;2095816;28;20020;-73
2024/03/15 07:37:53;;;;;;;6.35;5.65;;;;;;;;;;2101572;28;20028;-73
2024/03/15 07:39:14;;;;;;;7.32;4.72;;;;;;;;;;2105384;28;20025;-73
2024/03/15 07:40:35;;;;;;;6.00;5.10;;;;;;;;;;2096741;28;20476;-73
2024/03/15 07:41:59;;;;;;;4.93;4.53;;;;;;;;;;2102424;28;20698;-73
2024/03/15 07:43:18;;;;;;;6.47;5.10;;;;;;;;;;2093656;28;20060;-74
2024/03/15 07:44:37;;;;;;;4.97;4.47;;;;;;;;;;2099301;28;20024;-73
2024/03/15 07:45:56;;;;;;;5.28;4.88;;;;;;;;;;2103661;28;20107;-74
2024/03/15 07:47:15;;;;;;;6.32;4.63;;;;;;;;;;2105801;28;20040;-73
2024/03/15 07:48:34;;;;;;;6.57;4.93;;;;;;;;;;2105672;28;20021;-75
2024/03/15 07:49:54;;;;;;;7.43;4.82;;;;;;;;;;2106424;28;20028;-74
2024/03/15 07:51:13;;;;;;;5.90;5.20;;;;;;;;;;2105089;28;20024;-74
2024/03/15 07:52:32;;;;;;;5.22;4.57;;;;;;;;;;2105449;28;20579;-73
2024/03/15 07:53:51;;;;;;;5.20;4.55;;;;;;;;;;2105608;28;20056;-73
2024/03/15 07:55:10;;;;;;;5.55;4.72;;;;;;;;;;2103719;28;20041;-73
2024/03/15 07:56:30;;;;;;;5.75;5.25;;;;;;;;;;2105531;28;20020;-74
2024/03/15 07:57:49;;;;;;;7.93;5.50;;;;;;;;;;2104537;28;20024;-74
2024/03/15 07:59:08;;;;;;;15.23;5.05;;;;;;;;;;2104676;28;20459;-74
2024/03/15 08:00:28;;;;;;;8.27;6.20;;;;;;;;;;2104999;28;20024;-74
2024/03/15 08:01:47;;;;;;;6.70;5.72;;;;;;;;;;2105039;28;20024;-74
2024/03/15 08:03:06;;;;;;;8.68;5.25;;;;;;;;;;2095590;28;20517;-74